Time;durP1;ratioP1;P1;durP2;ratioP2;P2;SDS_P1;SDS_P2;PMS_P1;PMS_P2;Temp;Humidity;BMP_temperature;BMP_pressure;BME280_temperature;BME280_humidity;BME280_pressure;Samples;Min_cycle;Max_cycle;Signal;HPM_P1;HPM_P2
2024/04/08 00:01:17;;;;;;;9.05;1.77;;;17.60;99.90;;;;;;5409542;26;20354;-65
2024/04/08 00:03:43;;;;;;;11.75;1.85;;;17.60;99.90;;;;;;5408460;26;20036;-65
2024/04/08 00:06:09;;;;;;;4.38;1.95;;;17.60;99.90;;;;;;5411373;26;20760;-65
2024/04/08 00:08:34;;;;;;;7.13;1.90;;;17.50;99.90;;;;;;5424392;26;20027;-65
2024/04/08 00:11:09;;;;;;;13.65;2.35;;;17.40;99.90;;;;;;5407439;26;20010;-65
2024/04/08 00:13:39;;;;;;;5.18;1.83;;;17.40;99.90;;;;;;5394211;26;20464;-65
2024/04/08 00:16:06;;;;;;;9.68;2.20;;;17.40;99.90;;;;;;5404879;26;20003;-65
2024/04/08 00:18:32;;;;;;;5.63;1.98;;;17.30;99.90;;;;;;5418397;26;19996;-65
2024/04/08 00:21:06;;;;;;;10.00;2.70;;;17.30;99.90;;;;;;5412119;26;20018;-65
2024/04/08 00:23:32;;;;;;;5.57;1.38;;;17.20;99.90;;;;;;5402383;26;20073;-65
2024/04/08 00:26:05;;;;;;;6.18;1.90;;;17.20;99.90;;;;;;5400722;26;20007;-65
2024/04/08 00:28:33;;;;;;;5.50;1.75;;;17.20;99.90;;;;;;5395766;26;20003;-65
2024/04/08 00:31:07;;;;;;;4.57;1.75;;;17.30;99.90;;;;;;5381201;26;20000;-65
2024/04/08 00:33:34;;;;;;;3.65;2.00;;;17.30;99.90;;;;;;5380576;26;20012;-65
2024/04/08 00:36:01;;;;;;;5.47;1.73;;;17.20;99.90;;;;;;5396740;26;20325;-65
2024/04/08 00:38:27;;;;;;;16.30;3.00;;;17.10;99.90;;;;;;5378897;26;20010;-65
2024/04/08 00:40:54;;;;;;;7.07;2.05;;;16.90;99.90;;;;;;5348378;26;19996;-65
2024/04/08 00:43:20;;;;;;;4.53;2.10;;;17.10;99.90;;;;;;5383321;26;19996;-65
2024/04/08 00:45:47;;;;;;;8.43;2.42;;;17.10;99.90;;;;;;5389088;26;20019;-64
2024/04/08 00:48:17;;;;;;;6.90;1.95;;;17.20;99.90;;;;;;5395120;26;20081;-65
2024/04/08 00:50:46;;;;;;;11.98;1.83;;;17.20;99.90;;;;;;5380782;26;20591;-65
2024/04/08 00:53:13;;;;;;;7.68;2.00;;;17.20;99.90;;;;;;5397667;26;20005;-65
2024/04/08 00:55:41;;;;;;;5.70;1.90;;;17.30;99.90;;;;;;5378781;26;20270;-65
2024/04/08 00:58:07;;;;;;;7.05;2.05;;;17.30;99.90;;;;;;5398373;26;20000;-65
2024/04/08 01:00:33;;;;;;;13.23;2.35;;;17.30;99.90;;;;;;5406840;26;20023;-65
2024/04/08 01:03:02;;;;;;;10.65;2.55;;;17.30;99.90;;;;;;5404311;26;20000;-65
2024/04/08 01:05:28;;;;;;;14.85;2.47;;;17.40;99.90;;;;;;5382568;26;20087;-65
2024/04/08 01:07:54;;;;;;;10.55;2.80;;;17.30;99.90;;;;;;5382784;26;20000;-65
2024/04/08 01:10:20;;;;;;;9.00;2.42;;;17.40;99.90;;;;;;5383101;26;20086;-65
2024/04/08 01:12:46;;;;;;;4.53;2.22;;;17.30;99.90;;;;;;5389218;26;20008;-65
2024/04/08 01:15:13;;;;;;;6.00;1.83;;;17.40;99.90;;;;;;5395378;26;20086;-65
2024/04/08 01:17:38;;;;;;;4.45;1.80;;;17.60;99.90;;;;;;5392636;26;20072;-65
2024/04/08 01:20:05;;;;;;;1.77;1.27;;;17.80;99.90;;;;;;5380172;26;20012;-65
2024/04/08 01:22:32;;;;;;;4.55;1.60;;;17.80;99.90;;;;;;5407512;26;20457;-65
2024/04/08 01:25:04;;;;;;;6.15;2.15;;;17.80;99.90;;;;;;5406643;26;20081;-65
2024/04/08 01:27:30;;;;;;;2.53;1.20;;;17.80;99.90;;;;;;5409154;26;20463;-65
2024/04/08 01:29:56;;;;;;;5.05;1.35;;;17.70;99.90;;;;;;5379950;26;20032;-65
2024/04/08 01:32:22;;;;;;;2.13;1.00;;;17.80;99.90;;;;;;5380510;26;20000;-65
2024/04/08 01:34:48;;;;;;;3.10;1.50;;;17.90;99.90;;;;;;5391177;26;20471;-65
2024/04/08 01:37:14;;;;;;;3.42;1.23;;;17.90;99.90;;;;;;5407013;26;20006;-65
2024/04/08 01:39:39;;;;;;;12.43;1.92;;;17.90;99.90;;;;;;5378125;26;20004;-65
2024/04/08 01:42:05;;;;;;;2.53;1.40;;;17.80;99.90;;;;;;5379581;26;20332;-65
2024/04/08 01:44:31;;;;;;;5.68;2.00;;;17.80;99.90;;;;;;5393831;26;19996;-65
2024/04/08 01:46:57;;;;;;;4.40;2.28;;;17.80;99.90;;;;;;5398456;26;20044;-65
2024/04/08 01:49:26;;;;;;;3.72;1.40;;;17.80;99.90;;;;;;5379529;26;20053;-65
2024/04/08 01:51:53;;;;;;;6.97;1.38;;;17.70;99.90;;;;;;5378030;26;20054;-65
2024/04/08 01:54:21;;;;;;;13.43;2.13;;;17.70;99.90;;;;;;5381716;26;20014;-65
2024/04/08 01:56:47;;;;;;;5.60;1.55;;;17.60;99.90;;;;;;5377367;26;20085;-65
2024/04/08 01:59:13;;;;;;;6.75;1.90;;;17.50;99.90;;;;;;5380011;26;20329;-65
2024/04/08 02:01:39;;;;;;;5.85;1.67;;;17.40;99.90;;;;;;5379930;26;20006;-65
2024/04/08 02:04:05;;;;;;;6.40;2.08;;;17.40;99.90;;;;;;5389792;26;20352;-65
2024/04/08 02:06:30;;;;;;;10.30;1.83;;;17.30;99.90;;;;;;5391991;26;20000;-65
2024/04/08 02:08:56;;;;;;;11.75;1.88;;;17.30;99.90;;;;;;5382537;26;20097;-65
2024/04/08 02:11:22;;;;;;;4.85;1.40;;;17.30;99.90;;;;;;5374873;26;20000;-66
2024/04/08 02:13:47;;;;;;;6.15;1.20;;;17.30;99.90;;;;;;5352319;26;20008;-65
2024/04/08 02:16:14;;;;;;;6.13;3.00;;;17.30;99.90;;;;;;5347840;26;20460;-65
2024/04/08 02:18:40;;;;;;;4.32;1.70;;;17.40;99.90;;;;;;5377010;26;20000;-65
2024/04/08 02:21:12;;;;;;;5.40;1.30;;;17.40;99.90;;;;;;5392549;26;20345;-65
2024/04/08 02:23:38;;;;;;;4.05;1.50;;;17.30;99.90;;;;;;5382964;26;19996;-65
2024/04/08 02:26:04;;;;;;;3.45;1.42;;;17.30;99.90;;;;;;5391499;26;20011;-65
2024/04/08 02:28:30;;;;;;;4.03;1.48;;;17.20;99.90;;;;;;5409418;26;20027;-65
2024/04/08 02:31:03;;;;;;;6.75;1.45;;;17.20;99.90;;;;;;5401182;26;20010;-65
2024/04/08 02:33:29;;;;;;;3.15;1.05;;;17.20;99.90;;;;;;5379038;26;20003;-65
2024/04/08 02:36:02;;;;;;;4.15;1.75;;;17.30;99.90;;;;;;5381083;26;20073;-65
2024/04/08 02:38:27;;;;;;;5.18;1.95;;;17.30;99.90;;;;;;5378711;26;20015;-65
2024/04/08 02:40:53;;;;;;;4.78;2.28;;;17.20;99.90;;;;;;5387899;26;20033;-65
2024/04/08 02:43:19;;;;;;;3.97;1.42;;;17.20;99.90;;;;;;5395889;26;20014;-65
2024/04/08 02:45:45;;;;;;;3.13;1.42;;;17.20;99.90;;;;;;5377742;26;20441;-65
2024/04/08 02:48:10;;;;;;;9.75;1.38;;;17.10;99.90;;;;;;5401073;26;19996;-65
2024/04/08 02:50:36;;;;;;;5.50;1.50;;;17.20;99.90;;;;;;5378920;26;20076;-65
2024/04/08 02:53:02;;;;;;;4.57;1.83;;;17.20;99.90;;;;;;5388760;26;20011;-65
2024/04/08 02:55:28;;;;;;;2.25;1.02;;;17.10;99.90;;;;;;5380263;26;20001;-65
2024/04/08 02:57:53;;;;;;;3.72;1.45;;;17.10;99.90;;;;;;5389748;26;19996;-65
2024/04/08 03:00:19;;;;;;;5.85;1.67;;;17.10;99.90;;;;;;5382993;26;20000;-65
2024/04/08 03:02:48;;;;;;;3.03;1.88;;;17.00;99.90;;;;;;5391065;26;20453;-65
2024/04/08 03:05:14;;;;;;;7.90;1.80;;;17.00;99.90;;;;;;5389977;26;20004;-65
2024/04/08 03:07:40;;;;;;;4.00;1.40;;;17.00;99.90;;;;;;5390065;26;20455;-65
2024/04/08 03:10:06;;;;;;;7.00;1.42;;;17.00;99.90;;;;;;5402589;26;19995;-65
2024/04/08 03:12:32;;;;;;;4.00;2.00;;;17.00;99.90;;;;;;5377683;26;20075;-65
2024/04/08 03:14:57;;;;;;;7.88;1.83;;;17.00;99.90;;;;;;5378847;26;20004;-65
2024/04/08 03:17:23;;;;;;;8.13;1.80;;;17.00;99.90;;;;;;5377961;26;20001;-65
2024/04/08 03:19:55;;;;;;;5.82;1.95;;;16.90;99.90;;;;;;5387532;26;20024;-65
2024/04/08 03:22:21;;;;;;;7.78;1.95;;;16.90;99.90;;;;;;5381875;26;20014;-65
2024/04/08 03:24:47;;;;;;;12.70;1.90;;;16.90;99.90;;;;;;5391271;26;20039;-65
2024/04/08 03:27:13;;;;;;;4.65;2.20;;;16.90;99.90;;;;;;5400359;26;20000;-65
2024/04/08 03:29:39;;;;;;;4.90;1.60;;;16.90;99.90;;;;;;5390306;26;20342;-65
2024/04/08 03:32:05;;;;;;;11.88;2.45;;;16.90;99.90;;;;;;5378611;26;19996;-65
2024/04/08 03:34:35;;;;;;;7.93;1.88;;;16.80;99.90;;;;;;5380934;26;20008;-65
2024/04/08 03:37:03;;;;;;;2.92;1.55;;;16.70;99.90;;;;;;5377627;26;19996;-65
2024/04/08 03:39:29;;;;;;;4.30;2.40;;;16.70;99.90;;;;;;5377701;26;20015;-65
2024/04/08 03:41:55;;;;;;;9.43;2.15;;;16.70;99.90;;;;;;5378764;26;20008;-65
2024/04/08 03:44:21;;;;;;;3.42;1.58;;;16.70;99.90;;;;;;5378586;26;20461;-66
2024/04/08 03:46:49;;;;;;;7.95;1.90;;;16.70;99.90;;;;;;5398489;26;20033;-65
2024/04/08 03:49:15;;;;;;;3.08;1.55;;;16.60;99.90;;;;;;5385901;26;20008;-65
2024/04/08 03:51:40;;;;;;;7.20;1.95;;;16.60;99.90;;;;;;5376960;26;20005;-65
2024/04/08 03:54:06;;;;;;;3.30;1.63;;;16.60;99.90;;;;;;5380032;26;20000;-65
2024/04/08 03:56:32;;;;;;;5.40;1.50;;;16.50;99.90;;;;;;5376966;26;20321;-65
2024/04/08 03:58:58;;;;;;;9.32;2.00;;;16.50;99.90;;;;;;5378188;26;20461;-65
2024/04/08 04:01:24;;;;;;;9.88;1.88;;;16.50;99.90;;;;;;5378294;26;20016;-65
2024/04/08 04:03:50;;;;;;;3.05;1.77;;;16.40;99.90;;;;;;5383188;26;20015;-65
2024/04/08 04:06:16;;;;;;;5.32;1.45;;;16.40;99.90;;;;;;5399696;26;20055;-65
2024/04/08 04:08:42;;;;;;;4.28;1.45;;;16.40;99.90;;;;;;5381966;26;20332;-65
2024/04/08 04:11:08;;;;;;;2.95;1.55;;;16.30;99.90;;;;;;5381478;26;20020;-66
2024/04/08 04:13:34;;;;;;;7.65;1.67;;;16.30;99.90;;;;;;5380967;26;20427;-66
2024/04/08 04:16:02;;;;;;;2.28;1.60;;;16.30;99.90;;;;;;5380773;26;20096;-66
2024/04/08 04:18:28;;;;;;;8.10;1.80;;;16.30;99.90;;;;;;5380806;26;20077;-66
2024/04/08 04:20:54;;;;;;;7.43;1.50;;;16.10;99.90;;;;;;5391531;26;20407;-66
2024/04/08 04:23:21;;;;;;;7.35;1.83;;;16.00;99.90;;;;;;5398302;26;20000;-66
2024/04/08 04:25:59;;;;;;;7.13;1.83;;;16.00;99.90;;;;;;5380816;26;20000;-64
2024/04/08 04:28:25;;;;;;;5.65;2.05;;;15.90;99.90;;;;;;5385248;26;20012;-64
2024/04/08 04:30:56;;;;;;;3.67;2.03;;;15.80;99.90;;;;;;5395101;26;19996;-65
2024/04/08 04:33:23;;;;;;;5.17;1.50;;;15.80;99.90;;;;;;5389451;26;19996;-66
2024/04/08 04:35:53;;;;;;;6.00;1.63;;;15.80;99.90;;;;;;5397175;26;20229;-65
2024/04/08 04:38:19;;;;;;;5.72;2.15;;;15.80;99.90;;;;;;5392008;26;20015;-65
2024/04/08 04:40:44;;;;;;;16.77;2.20;;;15.80;99.90;;;;;;5401409;26;19996;-65
2024/04/08 04:43:10;;;;;;;7.93;1.95;;;15.70;99.90;;;;;;5381320;26;20009;-65
2024/04/08 04:45:36;;;;;;;2.58;1.42;;;15.80;99.90;;;;;;5380574;26;20015;-65
2024/04/08 04:48:02;;;;;;;4.30;1.77;;;15.70;99.90;;;;;;5379841;26;20341;-64
2024/04/08 04:50:30;;;;;;;5.00;1.85;;;15.80;99.90;;;;;;5378650;26;20082;-64
2024/04/08 04:52:56;;;;;;;6.28;1.60;;;15.70;99.90;;;;;;5388850;26;20015;-64
2024/04/08 04:55:22;;;;;;;4.28;1.60;;;15.80;99.90;;;;;;5397399;26;19999;-64
2024/04/08 04:57:47;;;;;;;6.15;1.92;;;15.80;99.90;;;;;;5396039;26;20014;-64
2024/04/08 05:00:13;;;;;;;3.88;1.60;;;15.80;99.90;;;;;;5392868;26;20015;-64
2024/04/08 05:02:39;;;;;;;2.83;1.15;;;15.80;99.90;;;;;;5390368;26;20000;-64
2024/04/08 05:05:05;;;;;;;13.88;1.90;;;15.80;99.90;;;;;;5395564;26;20004;-65
2024/04/08 05:07:31;;;;;;;7.30;2.05;;;15.90;99.90;;;;;;5385498;26;20456;-65
2024/04/08 05:09:57;;;;;;;5.30;1.63;;;15.80;99.90;;;;;;5394303;26;20027;-65
2024/04/08 05:12:23;;;;;;;9.68;2.15;;;15.80;99.90;;;;;;5399346;26;19999;-64
2024/04/08 05:14:49;;;;;;;7.15;1.95;;;15.80;99.90;;;;;;5381079;26;19996;-65
2024/04/08 05:17:14;;;;;;;11.32;1.83;;;15.80;99.90;;;;;;5379507;26;20012;-65
2024/04/08 05:19:40;;;;;;;4.80;1.75;;;15.80;99.90;;;;;;5380453;26;20019;-68
2024/04/08 05:22:08;;;;;;;3.00;1.75;;;15.90;99.90;;;;;;5380556;26;20011;-63
2024/04/08 05:24:34;;;;;;;3.13;1.48;;;15.90;99.90;;;;;;5393959;26;20000;-65
2024/04/08 05:27:00;;;;;;;4.22;1.88;;;15.90;99.90;;;;;;5397677;26;20471;-65
2024/04/08 05:29:26;;;;;;;11.10;1.90;;;15.90;99.90;;;;;;5388211;26;20085;-64
2024/04/08 05:31:51;;;;;;;2.90;1.10;;;15.80;99.90;;;;;;5397618;26;20011;-66
2024/04/08 05:34:17;;;;;;;3.72;1.42;;;15.90;99.90;;;;;;5392750;26;20004;-65
2024/04/08 05:36:43;;;;;;;3.47;1.70;;;15.90;99.90;;;;;;5381174;26;20012;-65
2024/04/08 05:39:09;;;;;;;3.53;1.20;;;16.00;99.90;;;;;;5388131;26;20010;-65
2024/04/08 05:41:35;;;;;;;10.70;1.83;;;16.00;99.90;;;;;;5409604;26;20004;-65
2024/04/08 05:44:01;;;;;;;13.57;2.13;;;16.10;99.90;;;;;;5381382;26;20015;-65
2024/04/08 05:46:26;;;;;;;3.60;1.75;;;16.20;99.90;;;;;;5394983;26;20196;-65
2024/04/08 05:48:52;;;;;;;3.28;1.65;;;16.20;99.90;;;;;;5382704;26;20011;-65
2024/04/08 05:51:18;;;;;;;3.33;1.33;;;16.20;99.90;;;;;;5384728;26;19996;-64
2024/04/08 05:53:44;;;;;;;11.43;2.63;;;16.30;99.90;;;;;;5379469;26;20078;-64
2024/04/08 05:56:09;;;;;;;7.50;2.15;;;16.30;99.90;;;;;;5393125;26;19999;-63
2024/04/08 05:58:35;;;;;;;2.88;1.75;;;16.30;99.90;;;;;;5385414;26;19997;-64
2024/04/08 06:01:01;;;;;;;4.35;2.13;;;16.30;99.90;;;;;;5376907;26;20065;-64
2024/04/08 06:03:27;;;;;;;10.07;1.63;;;16.40;99.90;;;;;;5379990;26;20000;-64
2024/04/08 06:05:53;;;;;;;2.67;1.58;;;16.40;99.90;;;;;;5379083;26;20004;-64
2024/04/08 06:08:19;;;;;;;13.60;2.22;;;16.50;99.90;;;;;;5378779;26;20028;-64
2024/04/08 06:10:50;;;;;;;8.77;1.90;;;16.50;99.90;;;;;;5379632;26;20448;-65
2024/04/08 06:13:16;;;;;;;6.53;1.60;;;16.70;99.90;;;;;;5330887;26;20009;-65
2024/04/08 06:15:42;;;;;;;7.57;2.30;;;16.80;99.90;;;;;;5313909;26;20001;-65
2024/04/08 06:18:08;;;;;;;6.30;1.98;;;17.00;99.90;;;;;;5334737;26;20005;-65
2024/04/08 06:20:34;;;;;;;5.25;1.80;;;17.10;99.90;;;;;;5341289;26;20832;-66
2024/04/08 06:23:00;;;;;;;3.83;1.55;;;17.20;99.90;;;;;;5329666;26;20009;-65
2024/04/08 06:25:26;;;;;;;7.05;1.83;;;17.30;99.90;;;;;;5315628;26;20389;-66
2024/04/08 06:27:52;;;;;;;1.85;1.17;;;17.30;99.90;;;;;;5321935;26;20057;-66
2024/04/08 06:30:18;;;;;;;5.05;1.65;;;17.40;99.90;;;;;;5335243;26;20012;-65
2024/04/08 06:32:48;;;;;;;2.92;1.20;;;17.30;99.90;;;;;;5327991;26;19993;-66
2024/04/08 06:35:16;;;;;;;3.75;1.77;;;17.40;99.90;;;;;;5337991;26;20128;-65
2024/04/08 06:37:42;;;;;;;7.95;2.28;;;17.40;99.90;;;;;;5322702;26;20053;-65
2024/04/08 06:40:10;;;;;;;6.70;2.15;;;17.40;99.90;;;;;;5322408;26;20033;-65
2024/04/08 06:42:35;;;;;;;4.78;1.63;;;17.40;99.90;;;;;;5321954;26;20005;-65
2024/04/08 06:45:01;;;;;;;21.50;2.78;;;17.40;99.90;;;;;;5309839;26;20005;-65
2024/04/08 06:47:28;;;;;;;4.40;1.60;;;17.40;99.90;;;;;;5325949;26;20013;-66
2024/04/08 06:49:53;;;;;;;2.80;1.20;;;17.40;99.90;;;;;;5342110;26;20000;-65
2024/04/08 06:52:20;;;;;;;17.80;2.42;;;17.40;99.90;;;;;;5327830;26;20012;-66
2024/04/08 06:54:45;;;;;;;3.97;1.42;;;17.40;99.90;;;;;;5309694;26;20020;-66
2024/04/08 06:57:11;;;;;;;7.30;1.67;;;17.50;99.90;;;;;;5327440;26;20341;-64
2024/04/08 07:00:24;;;;;;;6.43;1.55;;;17.50;99.90;;;;;;5319450;26;20349;-58
2024/04/08 07:02:51;;;;;;;3.90;1.40;;;17.50;99.90;;;;;;5333606;26;20002;-59
2024/04/08 07:05:17;;;;;;;5.30;1.55;;;17.60;99.90;;;;;;5324414;26;20008;-63
2024/04/08 07:07:42;;;;;;;9.13;1.13;;;17.60;99.90;;;;;;5325780;26;20013;-57
2024/04/08 07:10:08;;;;;;;8.93;1.77;;;17.70;99.90;;;;;;5315174;26;20011;-59
2024/04/08 07:12:34;;;;;;;5.43;1.77;;;17.80;99.90;;;;;;5323249;26;20464;-58
2024/04/08 07:14:59;;;;;;;5.13;1.30;;;17.90;99.90;;;;;;5329719;26;20015;-59
2024/04/08 07:17:25;;;;;;;4.93;2.28;;;17.90;99.90;;;;;;5324078;26;20075;-59
2024/04/08 07:19:51;;;;;;;3.00;1.23;;;17.90;99.90;;;;;;5309638;26;20009;-59
2024/04/08 07:22:16;;;;;;;3.00;1.35;;;18.00;99.90;;;;;;5323336;26;20009;-59
2024/04/08 07:24:42;;;;;;;6.72;1.55;;;18.20;99.90;;;;;;5328992;26;20344;-72
2024/04/08 07:27:08;;;;;;;3.47;1.10;;;18.30;99.90;;;;;;5329020;26;20360;-72
2024/04/08 07:29:34;;;;;;;1.70;1.15;;;18.40;99.90;;;;;;5310524;26;19994;-72
2024/04/08 07:32:00;;;;;;;3.13;0.70;;;18.50;99.90;;;;;;5309522;26;20710;-72
2024/04/08 07:34:26;;;;;;;7.57;1.38;;;18.60;99.90;;;;;;5299373;26;20327;-72
2024/04/08 07:36:53;;;;;;;8.68;1.77;;;18.70;99.90;;;;;;5314313;26;19997;-72
2024/04/08 07:39:18;;;;;;;5.68;1.55;;;18.80;99.90;;;;;;5324878;26;20329;-72
2024/04/08 07:41:44;;;;;;;4.65;1.52;;;18.90;99.90;;;;;;5334332;26;20001;-71
2024/04/08 07:44:10;;;;;;;1.35;0.80;;;18.90;99.90;;;;;;5317589;26;20699;-71
2024/04/08 07:46:37;;;;;;;3.08;1.10;;;19.00;99.90;;;;;;5336182;26;20001;-71
2024/04/08 07:49:03;;;;;;;9.50;1.05;;;19.10;99.90;;;;;;5329237;26;20015;-72
2024/04/08 07:51:29;;;;;;;10.45;1.80;;;19.30;99.90;;;;;;5327126;26;20013;-71
2024/04/08 07:53:55;;;;;;;8.57;2.05;;;19.30;99.90;;;;;;5324077;26;20001;-72
2024/04/08 07:56:21;;;;;;;9.88;1.80;;;19.50;99.90;;;;;;5314503;26;20012;-72
2024/04/08 07:58:47;;;;;;;3.83;0.95;;;19.50;99.90;;;;;;5324806;26;20464;-74
2024/04/08 08:01:13;;;;;;;3.15;1.20;;;19.60;99.90;;;;;;5326144;26;19997;-71
2024/04/08 08:03:39;;;;;;;5.68;1.20;;;19.60;99.90;;;;;;5321426;26;19997;-71
2024/04/08 08:06:05;;;;;;;7.53;1.25;;;19.60;99.90;;;;;;5339943;26;20009;-72
2024/04/08 08:08:31;;;;;;;3.63;1.30;;;19.80;99.90;;;;;;5339349;26;20063;-71
2024/04/08 08:11:02;;;;;;;9.93;1.98;;;19.90;99.90;;;;;;5321649;26;20044;-71
2024/04/08 08:13:30;;;;;;;2.47;1.40;;;20.10;99.90;;;;;;5343293;26;20009;-71
2024/04/08 08:15:57;;;;;;;4.55;1.23;;;20.20;99.90;;;;;;5329812;26;20080;-69
2024/04/08 08:18:23;;;;;;;3.30;1.17;;;20.10;99.90;;;;;;5311556;26;20467;-72
2024/04/08 08:20:53;;;;;;;7.68;1.60;;;20.20;99.90;;;;;;5322564;26;20343;-72
2024/04/08 08:23:20;;;;;;;8.63;2.13;;;20.40;99.90;;;;;;5318294;26;20086;-71
2024/04/08 08:25:47;;;;;;;5.13;1.50;;;20.50;99.50;;;;;;5326815;26;20248;-71
2024/04/08 08:28:13;;;;;;;8.25;1.52;;;20.40;99.20;;;;;;5317449;26;20033;-71
2024/04/08 08:30:40;;;;;;;6.57;1.65;;;20.40;99.40;;;;;;5272744;21;20015;-72
2024/04/08 08:33:06;;;;;;;14.73;1.52;;;20.50;99.20;;;;;;5240979;27;20066;-72
2024/04/08 08:35:32;;;;;;;4.57;1.38;;;20.60;99.00;;;;;;5239017;27;20745;-73
2024/04/08 08:37:59;;;;;;;4.20;1.23;;;20.70;98.80;;;;;;5234643;27;20006;-72
2024/04/08 08:40:26;;;;;;;14.45;2.30;;;20.80;98.30;;;;;;5228610;27;20003;-73
2024/04/08 08:42:55;;;;;;;10.07;1.55;;;20.90;98.40;;;;;;5231222;27;20081;-74
2024/04/08 08:45:21;;;;;;;3.58;1.25;;;20.90;98.20;;;;;;5222509;27;20061;-72
2024/04/08 08:47:47;;;;;;;2.20;1.00;;;21.00;98.40;;;;;;5239385;27;20007;-72
2024/04/08 08:50:13;;;;;;;4.35;1.02;;;21.10;98.00;;;;;;5210378;27;20007;-73
2024/04/08 08:52:39;;;;;;;3.35;1.95;;;21.20;98.30;;;;;;5214199;27;20021;-73
2024/04/08 08:55:05;;;;;;;10.88;1.77;;;21.00;97.70;;;;;;5176473;27;20402;-72
2024/04/08 08:57:33;;;;;;;11.23;1.52;;;21.00;98.20;;;;;;5217738;27;20008;-73
2024/04/08 09:00:03;;;;;;;9.65;2.15;;;21.00;97.90;;;;;;5210030;27;20937;-72
2024/04/08 09:02:32;;;;;;;5.07;1.27;;;21.00;98.10;;;;;;5239791;27;20094;-72
2024/04/08 09:04:58;;;;;;;6.07;1.33;;;21.20;98.00;;;;;;5238459;27;20018;-72
2024/04/08 09:07:23;;;;;;;1.60;0.70;;;21.30;97.40;;;;;;5222948;27;20003;-73
2024/04/08 09:09:57;;;;;;;6.25;0.85;;;21.50;97.70;;;;;;5211064;27;20071;-73
2024/04/08 09:12:23;;;;;;;6.70;1.17;;;21.40;97.20;;;;;;5210643;27;20019;-72
2024/04/08 09:14:53;;;;;;;2.63;1.00;;;21.60;96.90;;;;;;5232425;27;20317;-72
2024/04/08 09:17:20;;;;;;;5.57;1.13;;;21.70;96.40;;;;;;5217979;27;20006;-73
2024/04/08 09:19:47;;;;;;;12.05;2.10;;;21.60;96.40;;;;;;5208866;27;20018;-73
2024/04/08 09:22:13;;;;;;;7.57;0.88;;;21.80;95.90;;;;;;5227756;27;20002;-73
2024/04/08 09:24:43;;;;;;;1.60;0.93;;;21.90;96.20;;;;;;5219217;27;20014;-73
2024/04/08 09:27:10;;;;;;;2.25;0.73;;;22.00;95.70;;;;;;5225728;27;20066;-71
2024/04/08 09:29:35;;;;;;;9.10;1.45;;;22.20;95.70;;;;;;5230075;27;20055;-72
2024/04/08 09:32:01;;;;;;;8.00;0.98;;;22.20;95.10;;;;;;5239393;27;20015;-72
2024/04/08 09:34:29;;;;;;;21.05;1.45;;;22.10;95.90;;;;;;5227798;27;19999;-72
2024/04/08 09:36:55;;;;;;;5.15;1.13;;;22.20;95.90;;;;;;5228687;27;20003;-73
2024/04/08 09:39:22;;;;;;;6.65;1.85;;;22.10;95.60;;;;;;5231109;27;20086;-72
2024/04/08 09:41:49;;;;;;;5.25;1.25;;;22.30;95.50;;;;;;5241810;27;20015;-72
2024/04/08 09:44:17;;;;;;;4.00;1.30;;;22.80;95.60;;;;;;5168820;27;20003;-72
2024/04/08 09:46:45;;;;;;;3.83;1.25;;;23.10;94.90;;;;;;5242732;27;20007;-72
2024/04/08 09:49:11;;;;;;;5.32;1.05;;;23.10;94.30;;;;;;5238360;27;20014;-72
2024/04/08 09:51:41;;;;;;;2.92;1.05;;;23.20;94.00;;;;;;5234612;27;20011;-73
2024/04/08 09:54:11;;;;;;;4.93;1.27;;;23.10;94.50;;;;;;5237643;27;20074;-72
2024/04/08 09:56:40;;;;;;;4.80;1.27;;;23.30;94.20;;;;;;5238417;27;20308;-73
2024/04/08 09:59:19;;;;;;;4.47;1.42;;;23.30;93.10;;;;;;5222211;27;20082;-73
2024/04/08 10:01:46;;;;;;;4.28;0.65;;;23.40;92.40;;;;;;5232737;27;20034;-71
2024/04/08 10:04:19;;;;;;;5.90;1.67;;;23.50;92.20;;;;;;5230939;27;19999;-72
2024/04/08 10:06:49;;;;;;;4.70;0.93;;;23.40;91.90;;;;;;5209357;27;20038;-72
2024/04/08 10:09:16;;;;;;;13.90;1.30;;;23.60;92.30;;;;;;5237698;27;20003;-73
2024/04/08 10:11:46;;;;;;;5.32;0.70;;;23.80;91.70;;;;;;5236416;27;20014;-72
2024/04/08 10:14:19;;;;;;;9.63;1.20;;;23.90;91.00;;;;;;5231466;27;20018;-72
2024/04/08 10:16:48;;;;;;;2.17;1.08;;;23.80;90.60;;;;;;5237424;27;20006;-73
2024/04/08 10:19:14;;;;;;;2.05;0.82;;;24.00;90.00;;;;;;5227485;27;20083;-72
2024/04/08 10:21:41;;;;;;;10.02;1.30;;;24.10;90.90;;;;;;5225852;27;20011;-72
2024/04/08 10:24:07;;;;;;;3.65;0.65;;;24.20;90.20;;;;;;5224644;27;20003;-73
2024/04/08 10:26:36;;;;;;;5.07;1.42;;;24.20;90.10;;;;;;5235837;27;20160;-73
2024/04/08 10:29:05;;;;;;;12.23;0.90;;;24.10;90.10;;;;;;5234359;27;20018;-73
2024/04/08 10:31:31;;;;;;;6.78;1.17;;;24.00;90.60;;;;;;5230830;27;20075;-72
2024/04/08 10:33:57;;;;;;;4.78;1.58;;;24.30;87.70;;;;;;5200812;27;20012;-72
2024/04/08 10:36:23;;;;;;;15.50;1.75;;;24.10;90.20;;;;;;5228054;27;20004;-73
2024/04/08 10:38:49;;;;;;;5.40;1.42;;;24.50;88.00;;;;;;5238810;27;20014;-72
2024/04/08 10:41:15;;;;;;;7.15;1.10;;;24.40;86.50;;;;;;5236686;27;20010;-73
2024/04/08 10:43:41;;;;;;;9.70;1.35;;;24.50;87.00;;;;;;5227603;27;20078;-72
2024/04/08 10:46:17;;;;;;;5.72;1.45;;;24.70;87.30;;;;;;5235804;27;20109;-72
2024/04/08 10:48:44;;;;;;;9.02;1.63;;;24.50;85.40;;;;;;5232914;27;20003;-71
2024/04/08 10:51:12;;;;;;;5.35;0.77;;;24.40;85.30;;;;;;5224297;27;20450;-72
2024/04/08 10:53:42;;;;;;;3.58;1.17;;;24.40;83.60;;;;;;5236973;27;20336;-71
2024/04/08 10:56:08;;;;;;;15.70;1.83;;;24.40;80.40;;;;;;5233331;27;20000;-72
2024/04/08 10:58:34;;;;;;;3.42;0.82;;;24.30;83.10;;;;;;5230167;27;20009;-71
2024/04/08 11:01:00;;;;;;;8.25;1.25;;;24.20;81.80;;;;;;5223423;27;20008;-67
2024/04/08 11:03:27;;;;;;;47.05;4.25;;;24.10;82.90;;;;;;5229614;27;20013;-68
2024/04/08 11:05:53;;;;;;;17.25;2.70;;;24.30;82.00;;;;;;5224849;27;20308;-69
2024/04/08 11:08:19;;;;;;;32.38;4.22;;;24.40;81.00;;;;;;5234467;27;20352;-68
2024/04/08 11:10:45;;;;;;;8.02;0.93;;;24.30;81.90;;;;;;5224807;27;20017;-68
2024/04/08 11:13:12;;;;;;;10.25;1.95;;;24.40;80.50;;;;;;5238269;27;20011;-68
2024/04/08 11:15:40;;;;;;;12.65;2.33;;;24.90;80.40;;;;;;5223526;27;20324;-68
2024/04/08 11:18:12;;;;;;;8.15;1.83;;;25.20;81.90;;;;;;5237095;27;20007;-68
2024/04/08 11:20:38;;;;;;;6.50;1.77;;;25.80;79.30;;;;;;5236507;27;19999;-68
2024/04/08 11:23:05;;;;;;;14.40;2.72;;;26.10;79.00;;;;;;5229567;27;20013;-68
2024/04/08 11:25:31;;;;;;;5.78;1.55;;;26.10;77.70;;;;;;5231442;27;20003;-69
2024/04/08 11:27:58;;;;;;;13.68;2.05;;;25.90;76.10;;;;;;5234110;27;20010;-68
2024/04/08 11:30:24;;;;;;;2.03;0.75;;;25.60;76.60;;;;;;5237915;27;20007;-69
2024/04/08 11:32:50;;;;;;;6.20;1.23;;;25.50;75.50;;;;;;5203384;27;20017;-66
2024/04/08 11:35:16;;;;;;;2.65;0.85;;;25.00;76.60;;;;;;5229090;27;20578;-67
2024/04/08 11:37:42;;;;;;;10.95;1.50;;;25.10;75.60;;;;;;5227983;27;20399;-68
2024/04/08 11:40:08;;;;;;;6.82;1.40;;;25.10;75.40;;;;;;5224527;27;20011;-68
2024/04/08 11:42:34;;;;;;;16.00;1.70;;;25.00;75.90;;;;;;5227516;27;20003;-68
2024/04/08 11:45:04;;;;;;;5.43;1.42;;;24.90;77.40;;;;;;5234435;27;20340;-69
2024/04/08 11:47:30;;;;;;;7.97;1.40;;;24.90;78.90;;;;;;5229795;27;20013;-68
2024/04/08 11:49:56;;;;;;;5.15;1.13;;;25.30;76.70;;;;;;5236886;27;20044;-67
2024/04/08 11:52:22;;;;;;;12.95;1.23;;;25.20;76.10;;;;;;5226013;27;20015;-67
2024/04/08 11:54:48;;;;;;;7.18;1.73;;;25.30;77.40;;;;;;5226047;27;20325;-68
2024/04/08 11:57:15;;;;;;;12.43;2.58;;;25.50;76.90;;;;;;5238999;27;20002;-68
2024/04/08 11:59:42;;;;;;;8.43;2.10;;;26.00;77.10;;;;;;5234007;27;20018;-68
2024/04/08 12:02:08;;;;;;;5.18;0.90;;;26.40;76.40;;;;;;5234218;27;20095;-68
2024/04/08 12:04:34;;;;;;;9.55;1.20;;;26.90;75.00;;;;;;5234922;27;20007;-68
2024/04/08 12:07:01;;;;;;;7.53;1.48;;;26.70;74.40;;;;;;5234251;27;20017;-68
2024/04/08 12:09:27;;;;;;;5.50;0.93;;;26.80;73.60;;;;;;5217033;27;20019;-68
2024/04/08 12:11:53;;;;;;;14.50;1.75;;;26.70;71.70;;;;;;5231048;27;20364;-68
2024/04/08 12:14:18;;;;;;;3.22;0.85;;;27.10;73.00;;;;;;5226462;27;19996;-67
2024/04/08 12:16:44;;;;;;;7.45;1.02;;;27.20;72.80;;;;;;5223993;27;20384;-67
2024/04/08 12:19:10;;;;;;;10.85;2.17;;;27.50;72.00;;;;;;5231540;27;20003;-67
2024/04/08 12:21:36;;;;;;;5.80;0.88;;;27.80;74.10;;;;;;5238905;27;20007;-67
2024/04/08 12:24:03;;;;;;;2.20;0.68;;;28.40;69.50;;;;;;5236817;27;19999;-67
2024/04/08 12:26:29;;;;;;;11.38;2.13;;;28.80;65.60;;;;;;5235332;27;20007;-68
2024/04/08 12:28:58;;;;;;;10.60;0.63;;;28.80;64.40;;;;;;5241111;27;20404;-67
2024/04/08 12:31:23;;;;;;;6.68;1.30;;;28.40;65.30;;;;;;5241088;27;19999;-67
2024/04/08 12:33:49;;;;;;;13.40;1.80;;;28.70;64.40;;;;;;5243363;27;20003;-69
2024/04/08 12:36:15;;;;;;;8.52;1.27;;;28.80;64.60;;;;;;5240307;27;20080;-63
2024/04/08 12:38:41;;;;;;;1.92;0.38;;;28.90;62.10;;;;;;5242641;27;20129;-65
2024/04/08 12:41:07;;;;;;;4.20;1.08;;;28.90;59.70;;;;;;5240917;27;20018;-65
2024/04/08 12:43:34;;;;;;;2.30;0.75;;;29.40;58.80;;;;;;5242575;27;20007;-65